Grossos, Brazil
Current Conditions -  °F | °C
As of 9:00 AM on Thursday 18 Dec 2014 (Local Time) from SBMS Reporting Station
Broken Clouds Broken Clouds  
Wind Chill: 90°   Ceiling: 3000
Heat Index: 93°   Visibility: 6mi
Dew Point: 68°   Wind: 12mph
Humidity: 49%   Direction: 80°E
Pressure: 29.91"   Gusts: NA
Location:  4.98°S, 37.15°W
Report Text: SBMS 181200Z 08010KT 9999 BKN030 32/20 Q1013
Loading
Personal Weather Stations






























Interactive Weather Map New forecast layout! Learn more

10-Day Weather Forecast

Advertisements
Track Severe Weather on mobile